Time;durP1;ratioP1;P1;durP2;ratioP2;P2;SDS_P1;SDS_P2;PMS_P1;PMS_P2;Temp;Humidity;BMP_temperature;BMP_pressure;BME280_temperature;BME280_humidity;BME280_pressure;Samples;Min_cycle;Max_cycle;Signal;HPM_P1;HPM_P2
2022/01/26 00:06:30;;;;;;;11.15;8.52;;;3.20;99.90;;;;;;7421485;19;20328;-81
2022/01/26 00:08:56;;;;;;;12.63;8.85;;;3.10;99.90;;;;;;7415987;19;21040;-81
2022/01/26 00:11:24;;;;;;;9.75;8.52;;;3.20;99.90;;;;;;7417885;19;20312;-81
2022/01/26 00:13:51;;;;;;;11.27;8.73;;;3.20;99.90;;;;;;7418682;19;20333;-81
2022/01/26 00:18:49;;;;;;;12.80;8.95;;;3.20;99.90;;;;;;7374749;19;20335;-82
2022/01/26 00:21:29;;;;;;;11.23;8.27;;;3.10;99.90;;;;;;7417183;19;20328;-81
2022/01/26 00:24:21;;;;;;;11.00;9.30;;;3.20;99.90;;;;;;7404541;19;20309;-80
2022/01/26 00:29:20;;;;;;;11.45;8.73;;;3.20;99.90;;;;;;7417673;19;20422;-81
2022/01/26 00:40:05;;;;;;;13.20;9.43;;;3.10;99.90;;;;;;7315881;19;2004413;-80
2022/01/26 00:42:36;;;;;;;11.35;9.38;;;3.20;99.90;;;;;;7406809;19;20351;-81
2022/01/26 00:45:06;;;;;;;10.70;8.77;;;3.20;99.90;;;;;;7413408;19;20335;-82
2022/01/26 00:47:33;;;;;;;12.13;9.57;;;3.10;99.90;;;;;;7410074;19;20416;-81
2022/01/26 00:50:04;;;;;;;12.97;9.20;;;3.10;99.90;;;;;;7410985;19;20320;-80
2022/01/26 00:52:41;;;;;;;12.48;9.20;;;3.10;99.90;;;;;;7412433;19;20317;-80
2022/01/26 00:55:10;;;;;;;11.85;9.23;;;3.20;99.90;;;;;;7412836;19;20313;-82
2022/01/26 00:57:35;;;;;;;12.60;9.77;;;3.10;99.90;;;;;;7413270;19;20308;-83
2022/01/26 01:00:03;;;;;;;11.97;9.20;;;3.10;99.90;;;;;;7417054;19;20321;-81
2022/01/26 01:02:31;;;;;;;13.88;9.05;;;3.10;99.90;;;;;;7416467;19;20331;-81
2022/01/26 01:04:59;;;;;;;11.73;9.23;;;3.10;99.90;;;;;;7416015;19;20366;-81
2022/01/26 01:07:26;;;;;;;13.30;9.55;;;3.20;99.90;;;;;;7416326;19;20327;-80
2022/01/26 01:09:51;;;;;;;11.43;9.15;;;3.10;99.90;;;;;;7418100;19;20332;-81
2022/01/26 01:12:17;;;;;;;11.50;9.73;;;3.10;99.90;;;;;;7407862;19;20349;-80
2022/01/26 01:14:44;;;;;;;12.60;10.00;;;3.00;99.90;;;;;;7416411;19;20313;-80
2022/01/26 01:17:20;;;;;;;12.00;9.50;;;3.10;99.90;;;;;;7415465;19;20338;-81
2022/01/26 01:20:03;;;;;;;14.68;10.32;;;3.10;99.90;;;;;;7409255;19;20368;-80
2022/01/26 01:25:51;;;;;;;15.80;11.00;;;3.10;99.90;;;;;;7408795;19;20329;-79
2022/01/26 01:30:44;;;;;;;15.98;10.52;;;3.10;99.90;;;;;;7408742;19;20377;-81
2022/01/26 01:33:15;;;;;;;12.30;9.82;;;3.10;99.90;;;;;;7408053;19;20317;-81
2022/01/26 01:35:43;;;;;;;13.48;10.27;;;3.10;99.90;;;;;;7413115;19;20312;-81
2022/01/26 01:38:10;;;;;;;11.63;9.90;;;3.10;99.90;;;;;;7411692;19;20353;-80
2022/01/26 01:40:38;;;;;;;15.20;10.55;;;3.10;99.90;;;;;;7413685;19;20349;-81
2022/01/26 01:43:04;;;;;;;13.27;10.05;;;3.10;99.90;;;;;;7414526;19;20308;-81
2022/01/26 01:45:35;;;;;;;11.48;9.63;;;3.10;99.90;;;;;;7412284;19;20341;-81
2022/01/26 01:48:01;;;;;;;13.00;11.10;;;3.10;99.90;;;;;;7412246;19;20337;-81
2022/01/26 01:50:27;;;;;;;14.25;10.43;;;3.10;99.90;;;;;;7413196;19;20341;-80
2022/01/26 01:52:59;;;;;;;13.63;9.70;;;3.10;99.90;;;;;;7413076;19;20333;-81
2022/01/26 01:55:28;;;;;;;14.38;10.32;;;3.10;99.90;;;;;;7413131;19;20341;-80
2022/01/26 01:57:57;;;;;;;12.30;9.93;;;3.10;99.90;;;;;;7409398;19;20360;-81
2022/01/26 02:00:25;;;;;;;12.50;9.93;;;3.00;99.90;;;;;;7413230;19;20382;-81
2022/01/26 02:02:50;;;;;;;13.75;10.48;;;3.00;99.90;;;;;;7408047;19;20791;-81
2022/01/26 02:05:26;;;;;;;11.73;10.00;;;3.10;99.90;;;;;;7413782;19;20356;-82
2022/01/26 02:07:55;;;;;;;14.57;10.75;;;3.00;99.90;;;;;;7416972;19;20309;-81
2022/01/26 02:10:38;;;;;;;19.05;10.77;;;2.90;99.90;;;;;;7397516;19;20309;-81
2022/01/26 02:13:17;;;;;;;17.13;10.25;;;2.90;99.90;;;;;;7365853;19;20341;-82
2022/01/26 02:16:06;;;;;;;15.52;11.77;;;2.90;99.90;;;;;;7401013;19;20356;-82
2022/01/26 02:50:23;;;;;;;21.45;13.82;;;2.80;99.90;;;;;;7420526;19;20389;-82
2022/01/26 02:53:01;;;;;;;17.15;12.05;;;2.70;99.90;;;;;;7286126;19;2004527;-82
2022/01/26 02:55:43;;;;;;;17.93;12.63;;;2.70;99.90;;;;;;7359710;19;20325;-82
2022/01/26 02:58:55;;;;;;;15.45;12.05;;;2.70;99.90;;;;;;7409854;19;20337;-83
2022/01/26 03:04:30;;;;;;;18.00;13.40;;;2.70;99.90;;;;;;7424102;19;21816;-78
2022/01/26 03:07:04;;;;;;;17.92;12.68;;;2.90;99.90;;;;;;7418816;19;20323;-79
2022/01/26 03:09:39;;;;;;;17.00;12.60;;;2.70;99.90;;;;;;7419962;19;20357;-80
2022/01/26 03:12:10;;;;;;;17.50;11.68;;;2.80;99.90;;;;;;7414455;19;20913;-79
2022/01/26 03:18:03;;;;;;;16.98;12.68;;;2.70;99.90;;;;;;7420072;19;20324;-79
2022/01/26 03:19:54;;;;;;;16.35;12.15;;;2.80;99.90;;;;;;7415751;19;20348;-80
2022/01/26 03:33:12;;;;;;;14.82;11.45;;;2.70;99.90;;;;;;7409662;19;20328;-80
2022/01/26 03:35:53;;;;;;;17.42;11.95;;;2.70;99.90;;;;;;7414901;19;20684;-79
2022/01/26 03:38:24;;;;;;;15.07;11.90;;;2.70;99.90;;;;;;7413083;19;20339;-79
2022/01/26 03:41:08;;;;;;;16.97;11.57;;;2.70;99.90;;;;;;7418776;19;20342;-80
2022/01/26 03:43:36;;;;;;;22.67;12.20;;;2.80;99.90;;;;;;7393988;19;20409;-79
2022/01/26 03:46:02;;;;;;;17.20;11.50;;;2.60;99.90;;;;;;7416192;19;20321;-80
2022/01/26 03:48:28;;;;;;;18.05;12.52;;;2.70;99.90;;;;;;7411219;19;20309;-79
2022/01/26 03:50:54;;;;;;;13.88;11.60;;;2.50;99.90;;;;;;7391340;19;20348;-79
2022/01/26 03:53:20;;;;;;;15.82;11.63;;;2.60;99.90;;;;;;7411434;19;20666;-79
2022/01/26 03:55:46;;;;;;;13.48;11.10;;;2.60;99.90;;;;;;7412342;19;20344;-79
2022/01/26 03:58:11;;;;;;;15.17;11.70;;;2.70;99.90;;;;;;7409858;19;20321;-79
2022/01/26 04:00:37;;;;;;;13.57;11.00;;;2.60;99.90;;;;;;7411251;19;20324;-79
2022/01/26 04:03:03;;;;;;;15.00;11.77;;;2.60;99.90;;;;;;7406126;19;20373;-79
2022/01/26 04:05:29;;;;;;;14.43;11.90;;;2.60;99.90;;;;;;7416276;19;20355;-78
2022/01/26 04:08:00;;;;;;;17.50;11.25;;;2.60;99.90;;;;;;7413374;19;20323;-79
2022/01/26 04:10:52;;;;;;;18.58;12.45;;;2.60;99.90;;;;;;7416694;19;20385;-80
2022/01/26 04:13:14;;;;;;;17.67;12.50;;;2.70;99.90;;;;;;7309020;19;2004401;-79
2022/01/26 04:15:40;;;;;;;18.50;12.60;;;2.70;99.90;;;;;;7410000;19;20365;-79
2022/01/26 04:18:11;;;;;;;19.27;12.77;;;2.70;99.90;;;;;;7414550;19;20855;-79
2022/01/26 04:20:41;;;;;;;18.20;12.30;;;2.70;99.90;;;;;;7412797;19;20333;-79
2022/01/26 04:23:14;;;;;;;18.70;12.38;;;2.70;99.90;;;;;;7409577;19;20312;-79
2022/01/26 04:25:43;;;;;;;16.23;11.65;;;2.60;99.90;;;;;;7411613;19;20324;-78
2022/01/26 04:28:15;;;;;;;15.47;11.93;;;2.60;99.90;;;;;;7401305;19;20356;-79
2022/01/26 04:30:41;;;;;;;16.08;12.55;;;2.70;99.90;;;;;;7408616;19;20317;-78
2022/01/26 04:33:07;;;;;;;15.68;12.15;;;2.70;99.90;;;;;;7391510;19;20300;-78
2022/01/26 04:35:35;;;;;;;17.58;13.00;;;2.70;99.90;;;;;;7412718;19;20341;-80
2022/01/26 04:38:21;;;;;;;16.38;12.50;;;2.70;99.90;;;;;;7410224;19;20309;-80
2022/01/26 04:43:35;;;;;;;16.08;11.68;;;2.70;99.90;;;;;;7399239;19;20375;-79
2022/01/26 04:46:01;;;;;;;18.70;12.32;;;2.90;99.90;;;;;;7377807;19;20320;-79
2022/01/26 04:48:28;;;;;;;18.10;13.18;;;2.70;99.90;;;;;;7393905;19;20951;-79
2022/01/26 04:50:54;;;;;;;17.83;12.63;;;2.70;99.90;;;;;;7388454;19;20391;-79
2022/01/26 04:53:20;;;;;;;18.00;13.35;;;2.70;99.90;;;;;;7387099;19;20324;-80
2022/01/26 04:55:46;;;;;;;19.38;12.65;;;2.70;99.90;;;;;;7390136;19;20923;-79
2022/01/26 04:58:57;;;;;;;18.58;13.40;;;2.70;99.90;;;;;;7389504;19;20327;-81
2022/01/26 05:05:44;;;;;;;17.55;12.85;;;2.60;99.90;;;;;;7383654;19;20423;-79
2022/01/26 05:08:09;;;;;;;18.17;13.43;;;2.80;99.90;;;;;;7372327;19;20320;-82
2022/01/26 05:10:38;;;;;;;18.27;12.77;;;2.70;99.90;;;;;;7380632;19;21223;-79
2022/01/26 05:13:04;;;;;;;18.65;13.57;;;2.70;99.90;;;;;;7382795;19;20308;-78
2022/01/26 05:15:30;;;;;;;20.27;13.95;;;2.70;99.90;;;;;;7381767;19;20329;-79
2022/01/26 05:17:55;;;;;;;20.80;13.83;;;2.80;99.90;;;;;;7380956;19;20297;-78
2022/01/26 05:20:21;;;;;;;20.05;13.57;;;2.70;99.90;;;;;;7383719;19;20323;-78
2022/01/26 05:22:47;;;;;;;17.25;12.98;;;2.70;99.90;;;;;;7343989;19;20316;-78
2022/01/26 05:25:13;;;;;;;19.07;13.10;;;2.90;99.90;;;;;;7381451;19;20310;-78
2022/01/26 05:27:39;;;;;;;17.85;13.23;;;2.70;99.90;;;;;;7399913;19;20345;-79
2022/01/26 05:30:05;;;;;;;19.25;12.52;;;2.70;99.90;;;;;;7398994;19;20308;-79
2022/01/26 05:32:31;;;;;;;13.25;11.18;;;2.80;99.90;;;;;;7382174;19;20321;-79
2022/01/26 05:34:57;;;;;;;19.03;13.10;;;2.80;99.90;;;;;;7379644;19;21098;-78
2022/01/26 05:37:23;;;;;;;20.27;13.07;;;2.80;99.90;;;;;;7360253;19;20345;-79
2022/01/26 05:39:48;;;;;;;19.58;12.52;;;2.80;99.90;;;;;;7380528;19;20744;-79
2022/01/26 05:42:15;;;;;;;18.27;12.70;;;2.80;99.90;;;;;;7382033;19;20792;-78
2022/01/26 05:44:41;;;;;;;15.13;11.55;;;2.80;99.90;;;;;;7381229;19;20289;-79
2022/01/26 05:47:13;;;;;;;19.23;12.60;;;2.80;99.90;;;;;;7380636;19;20293;-79
2022/01/26 05:49:39;;;;;;;17.15;12.07;;;2.80;99.90;;;;;;7382896;19;20341;-78
2022/01/26 05:52:05;;;;;;;16.92;11.75;;;2.80;99.90;;;;;;7388431;19;20392;-79
2022/01/26 05:54:31;;;;;;;16.08;11.70;;;2.80;99.90;;;;;;7385927;19;20412;-79
2022/01/26 05:56:56;;;;;;;17.00;11.63;;;2.80;99.90;;;;;;7384522;19;20904;-79
2022/01/26 05:59:22;;;;;;;16.02;11.48;;;2.80;99.90;;;;;;7380088;19;20903;-79
2022/01/26 06:01:48;;;;;;;13.32;11.30;;;2.80;99.90;;;;;;7390266;19;20327;-79
2022/01/26 06:04:14;;;;;;;17.60;11.73;;;2.80;99.90;;;;;;7386466;19;20340;-79
2022/01/26 06:06:40;;;;;;;16.10;10.70;;;2.80;99.90;;;;;;7367413;19;20324;-79
2022/01/26 06:09:07;;;;;;;14.63;10.43;;;2.80;99.90;;;;;;7386390;19;20332;-79
2022/01/26 06:11:32;;;;;;;14.15;10.88;;;2.70;99.90;;;;;;7387246;19;20707;-79
2022/01/26 06:13:58;;;;;;;12.83;9.57;;;2.80;99.90;;;;;;7387493;19;20308;-79
2022/01/26 06:16:24;;;;;;;12.17;9.30;;;2.80;99.90;;;;;;7386111;19;20316;-80
2022/01/26 06:18:50;;;;;;;13.88;9.15;;;2.80;99.90;;;;;;7369306;19;20912;-79
2022/01/26 06:21:19;;;;;;;14.60;9.57;;;3.00;99.90;;;;;;7386854;19;20308;-79
2022/01/26 06:23:45;;;;;;;13.45;9.65;;;2.80;99.90;;;;;;7378929;19;20975;-78
2022/01/26 06:26:10;;;;;;;12.10;9.10;;;2.80;99.90;;;;;;7381173;19;20345;-79
2022/01/26 06:28:36;;;;;;;11.70;8.75;;;2.90;99.90;;;;;;7386175;19;20305;-79
2022/01/26 06:31:06;;;;;;;11.82;8.80;;;2.80;99.90;;;;;;7385792;19;20316;-79
2022/01/26 06:33:35;;;;;;;10.07;8.43;;;2.90;99.90;;;;;;7382914;19;20336;-78
2022/01/26 06:36:02;;;;;;;13.65;9.25;;;2.90;99.90;;;;;;7361014;19;20894;-79
2022/01/26 06:38:28;;;;;;;11.80;9.27;;;2.90;99.90;;;;;;7385949;19;20986;-79
2022/01/26 06:40:56;;;;;;;12.30;8.70;;;2.80;99.90;;;;;;7393379;19;20323;-79
2022/01/26 06:43:23;;;;;;;9.55;8.15;;;2.80;99.90;;;;;;7371944;19;20324;-79
2022/01/26 06:45:54;;;;;;;10.63;7.67;;;2.80;99.90;;;;;;7389082;19;20321;-79
2022/01/26 06:51:04;;;;;;;9.38;7.40;;;2.80;99.90;;;;;;7385318;19;20345;-78
2022/01/26 06:53:30;;;;;;;9.90;7.80;;;2.70;99.90;;;;;;7372081;19;20852;-78
2022/01/26 06:55:57;;;;;;;9.48;7.40;;;2.70;99.90;;;;;;7382872;19;20297;-78
2022/01/26 06:58:23;;;;;;;9.65;7.78;;;2.70;99.90;;;;;;7384995;19;20344;-77
2022/01/26 07:00:49;;;;;;;9.32;7.68;;;2.70;99.90;;;;;;7388435;19;20458;-78
2022/01/26 07:03:14;;;;;;;11.25;8.07;;;2.70;99.90;;;;;;7383995;19;20383;-78
2022/01/26 07:05:41;;;;;;;9.17;7.33;;;2.60;99.90;;;;;;7383966;19;20741;-78
2022/01/26 07:08:06;;;;;;;7.72;6.78;;;2.80;99.90;;;;;;7382186;19;20803;-79
2022/01/26 07:10:32;;;;;;;8.32;5.90;;;2.60;99.90;;;;;;7379790;19;20859;-78
2022/01/26 07:12:58;;;;;;;7.32;5.80;;;2.50;99.90;;;;;;7383427;19;20316;-79
2022/01/26 07:23:28;;;;;;;6.72;5.38;;;2.50;99.90;;;;;;7394955;19;20329;-80
2022/01/26 07:25:54;;;;;;;9.60;6.70;;;2.40;99.90;;;;;;7397427;19;20336;-79
2022/01/26 07:28:20;;;;;;;6.45;5.75;;;2.40;99.90;;;;;;7399005;19;20338;-79
2022/01/26 07:30:46;;;;;;;6.40;5.45;;;2.40;99.90;;;;;;7393116;19;20305;-79
2022/01/26 07:33:13;;;;;;;7.00;5.10;;;2.40;99.90;;;;;;7394022;19;20312;-79
2022/01/26 07:35:38;;;;;;;5.03;4.53;;;2.30;99.90;;;;;;7390222;19;20791;-79
2022/01/26 07:38:05;;;;;;;6.25;5.65;;;2.30;99.90;;;;;;7389423;19;20319;-79
2022/01/26 07:40:31;;;;;;;5.85;5.13;;;2.40;99.90;;;;;;7394091;19;20324;-79
2022/01/26 07:42:57;;;;;;;6.55;5.38;;;2.30;99.90;;;;;;7393673;19;20301;-79
2022/01/26 07:45:23;;;;;;;7.38;5.88;;;2.30;99.90;;;;;;7390965;19;20433;-78
2022/01/26 07:47:52;;;;;;;5.82;5.22;;;2.30;99.90;;;;;;7384932;19;20313;-79
2022/01/26 07:50:19;;;;;;;10.30;6.00;;;2.30;99.90;;;;;;7391812;19;20740;-79
2022/01/26 07:52:45;;;;;;;6.43;5.72;;;2.30;99.90;;;;;;7381352;19;20747;-79
2022/01/26 07:55:15;;;;;;;7.27;5.97;;;2.30;99.90;;;;;;7388361;19;20911;-79
2022/01/26 07:57:43;;;;;;;6.45;5.60;;;2.40;99.90;;;;;;7391703;19;20293;-79
2022/01/26 08:00:10;;;;;;;7.32;6.00;;;2.20;99.90;;;;;;7390817;19;20348;-80
2022/01/26 08:02:42;;;;;;;8.18;6.13;;;2.30;99.90;;;;;;7384477;19;20341;-79
2022/01/26 08:05:08;;;;;;;7.13;6.15;;;2.30;99.90;;;;;;7392858;19;20412;-79
2022/01/26 08:07:34;;;;;;;9.67;6.43;;;2.30;99.90;;;;;;7380179;19;20329;-79
2022/01/26 08:10:00;;;;;;;8.33;6.63;;;2.30;99.90;;;;;;7377399;19;20390;-79
2022/01/26 08:12:26;;;;;;;9.37;6.83;;;2.40;99.90;;;;;;7406386;19;20317;-80
2022/01/26 08:14:51;;;;;;;8.90;6.32;;;2.40;99.90;;;;;;7398390;19;20356;-79
2022/01/26 08:17:17;;;;;;;8.90;6.87;;;2.40;99.90;;;;;;7399345;19;20315;-78
2022/01/26 08:19:43;;;;;;;8.80;7.20;;;2.30;99.90;;;;;;7390638;19;20333;-79
2022/01/26 08:22:11;;;;;;;9.05;7.90;;;2.30;99.90;;;;;;7395640;19;20304;-79
2022/01/26 08:24:37;;;;;;;10.47;8.47;;;2.30;99.90;;;;;;7365127;19;20367;-79
2022/01/26 08:27:09;;;;;;;9.68;8.60;;;2.30;99.90;;;;;;7364706;19;20325;-80
2022/01/26 08:29:51;;;;;;;10.93;8.88;;;2.30;99.90;;;;;;7389107;19;20320;-79
2022/01/26 08:32:17;;;;;;;12.23;9.70;;;2.30;99.90;;;;;;7390916;19;20329;-79
2022/01/26 08:34:44;;;;;;;12.52;9.45;;;2.40;99.90;;;;;;7389613;19;20300;-79
2022/01/26 08:37:10;;;;;;;11.67;9.63;;;2.30;99.90;;;;;;7401996;19;20305;-80
2022/01/26 08:39:36;;;;;;;13.43;10.63;;;2.30;99.90;;;;;;7402410;19;20330;-79
2022/01/26 08:42:02;;;;;;;14.15;10.38;;;2.30;99.90;;;;;;7394183;19;20284;-79
2022/01/26 08:44:28;;;;;;;13.23;10.77;;;2.30;99.90;;;;;;7398967;19;20876;-79
2022/01/26 08:46:54;;;;;;;11.90;9.70;;;2.30;99.90;;;;;;7395095;19;20328;-79
2022/01/26 08:49:21;;;;;;;15.03;10.63;;;2.40;99.90;;;;;;7386852;19;20309;-79
2022/01/26 08:51:49;;;;;;;13.00;9.73;;;2.50;99.90;;;;;;7384842;19;20395;-80
2022/01/26 08:54:15;;;;;;;12.53;10.43;;;2.50;99.90;;;;;;7393015;19;20451;-79
2022/01/26 08:56:42;;;;;;;13.20;10.70;;;2.60;99.90;;;;;;7394476;19;20403;-79
2022/01/26 08:59:08;;;;;;;11.73;10.03;;;2.60;99.90;;;;;;7389893;19;20346;-80
2022/01/26 09:01:36;;;;;;;12.57;10.70;;;2.70;99.90;;;;;;7384959;19;20864;-79
2022/01/26 09:04:02;;;;;;;16.90;10.80;;;2.90;99.90;;;;;;7396143;19;20325;-80
2022/01/26 09:06:28;;;;;;;15.48;11.40;;;2.80;99.90;;;;;;7391677;19;20328;-79
2022/01/26 09:09:01;;;;;;;14.10;11.20;;;2.90;99.90;;;;;;7397676;19;20672;-79
2022/01/26 09:11:27;;;;;;;13.27;10.60;;;3.00;99.90;;;;;;7402624;19;20323;-79
2022/01/26 09:13:57;;;;;;;13.45;9.57;;;3.00;99.90;;;;;;7385605;19;20367;-79
2022/01/26 09:16:24;;;;;;;10.47;9.37;;;3.00;99.90;;;;;;7387766;19;20889;-79
2022/01/26 09:19:02;;;;;;;10.93;9.27;;;3.00;99.90;;;;;;7392320;19;20300;-79
2022/01/26 09:21:30;;;;;;;13.95;10.30;;;2.90;99.90;;;;;;7288207;19;2004652;-78
2022/01/26 09:23:56;;;;;;;13.27;10.30;;;2.80;99.90;;;;;;7386830;19;20336;-79
2022/01/26 09:26:22;;;;;;;13.65;9.57;;;2.80;99.90;;;;;;7388410;19;20341;-79
2022/01/26 09:28:47;;;;;;;12.20;9.43;;;2.80;99.90;;;;;;7400876;19;20353;-78
2022/01/26 09:31:38;;;;;;;13.55;10.05;;;3.10;99.90;;;;;;7385688;19;20344;-80
2022/01/26 09:34:04;;;;;;;10.88;9.73;;;2.80;99.90;;;;;;7368653;19;20340;-77
2022/01/26 09:36:30;;;;;;;12.27;9.77;;;2.90;99.90;;;;;;7396990;19;20317;-79
2022/01/26 09:38:56;;;;;;;10.60;8.77;;;2.90;99.90;;;;;;7400787;19;20367;-79
2022/01/26 09:41:43;;;;;;;12.83;9.13;;;2.90;99.90;;;;;;7405421;19;20344;-78
2022/01/26 09:44:09;;;;;;;12.60;9.70;;;3.00;99.90;;;;;;7398869;19;20352;-79
2022/01/26 09:46:34;;;;;;;16.83;9.60;;;3.10;99.90;;;;;;7403367;19;20300;-80
2022/01/26 09:49:01;;;;;;;9.57;8.57;;;3.10;99.90;;;;;;7389284;19;20340;-78
2022/01/26 09:51:27;;;;;;;11.23;9.20;;;3.20;99.90;;;;;;7398926;19;20336;-79
2022/01/26 09:54:03;;;;;;;12.88;8.93;;;3.00;99.90;;;;;;7395522;19;20364;-78
2022/01/26 09:56:29;;;;;;;11.95;9.15;;;3.00;99.90;;;;;;7391579;19;20364;-79
2022/01/26 09:58:55;;;;;;;9.60;8.60;;;3.20;99.90;;;;;;7385679;19;20336;-79
2022/01/26 10:01:21;;;;;;;11.82;8.32;;;3.30;99.90;;;;;;7340861;19;20331;-79
2022/01/26 10:03:51;;;;;;;10.77;8.57;;;3.20;99.90;;;;;;7398994;19;20340;-79
2022/01/26 10:06:24;;;;;;;9.50;8.10;;;3.20;99.90;;;;;;7400657;19;20353;-79
2022/01/26 10:09:27;;;;;;;11.65;8.50;;;3.20;99.90;;;;;;7407087;19;20329;-79
2022/01/26 10:17:35;;;;;;;8.73;7.80;;;3.10;99.90;;;;;;7309307;19;2004377;-79
2022/01/26 10:20:03;;;;;;;10.70;8.03;;;3.30;99.90;;;;;;7409871;19;20300;-80
2022/01/26 10:22:30;;;;;;;8.77;7.63;;;3.30;99.90;;;;;;7412611;19;20364;-80
2022/01/26 10:25:03;;;;;;;8.35;7.25;;;3.30;99.90;;;;;;7408514;19;20304;-79
2022/01/26 10:27:40;;;;;;;9.48;7.95;;;3.40;99.90;;;;;;7414903;19;20376;-79
2022/01/26 10:30:08;;;;;;;10.27;7.75;;;3.50;99.90;;;;;;7418855;19;20328;-80
2022/01/26 10:32:35;;;;;;;8.43;7.55;;;3.40;99.90;;;;;;7404304;19;20339;-78
2022/01/26 10:35:02;;;;;;;8.50;7.03;;;3.60;99.90;;;;;;7401403;19;20327;-80
2022/01/26 10:37:29;;;;;;;8.05;6.80;;;3.50;99.90;;;;;;7403802;19;20300;-80
2022/01/26 10:40:13;;;;;;;8.55;7.25;;;3.50;99.90;;;;;;7399606;19;20336;-79
2022/01/26 10:42:39;;;;;;;9.68;7.43;;;3.50;99.90;;;;;;7420987;19;20312;-81
2022/01/26 10:45:14;;;;;;;10.60;7.07;;;3.60;99.90;;;;;;7391492;19;20325;-80
2022/01/26 10:47:47;;;;;;;7.90;7.00;;;3.40;99.90;;;;;;7393193;19;20475;-80
2022/01/26 10:50:43;;;;;;;6.85;5.93;;;3.60;99.90;;;;;;7407939;19;20318;-80
2022/01/26 10:53:12;;;;;;;10.35;6.47;;;3.50;99.90;;;;;;7293876;19;2004202;-80
2022/01/26 10:55:39;;;;;;;7.70;6.32;;;3.50;99.90;;;;;;7393239;19;20649;-80
2022/01/26 10:58:07;;;;;;;8.07;6.78;;;3.50;99.90;;;;;;7382298;19;20349;-78
2022/01/26 11:00:38;;;;;;;8.17;6.70;;;3.50;99.90;;;;;;7399001;19;20304;-79
2022/01/26 11:03:04;;;;;;;6.83;6.07;;;3.50;99.90;;;;;;7383788;19;20326;-79
2022/01/26 11:05:30;;;;;;;8.80;7.40;;;3.60;99.90;;;;;;7380212;19;20365;-79
2022/01/26 11:07:56;;;;;;;7.28;6.40;;;3.80;99.90;;;;;;7383244;19;20864;-79
2022/01/26 11:10:33;;;;;;;7.57;6.00;;;3.80;99.90;;;;;;7380265;19;20312;-77
2022/01/26 11:12:59;;;;;;;9.82;6.10;;;3.60;99.90;;;;;;7383192;19;20746;-78
2022/01/26 11:15:24;;;;;;;6.18;5.57;;;3.70;99.90;;;;;;7379874;19;20336;-78
2022/01/26 11:17:51;;;;;;;8.40;6.10;;;3.70;99.90;;;;;;7387309;19;20891;-79
2022/01/26 11:20:21;;;;;;;6.25;5.18;;;3.70;99.90;;;;;;7385856;19;20320;-78
2022/01/26 11:22:54;;;;;;;6.00;4.95;;;3.70;99.90;;;;;;7385616;19;20329;-79
2022/01/26 11:25:21;;;;;;;6.10;5.50;;;3.70;99.90;;;;;;7387439;19;20340;-80
2022/01/26 11:27:46;;;;;;;6.15;5.45;;;3.80;99.90;;;;;;7387325;19;20317;-79
2022/01/26 11:30:27;;;;;;;7.75;5.38;;;3.70;99.90;;;;;;7383079;19;20308;-79
2022/01/26 11:33:01;;;;;;;6.28;5.13;;;3.60;99.90;;;;;;7388199;19;20864;-78
2022/01/26 11:35:32;;;;;;;5.68;5.07;;;3.40;99.90;;;;;;7385888;19;20341;-79
2022/01/26 11:38:28;;;;;;;5.83;5.23;;;3.40;99.90;;;;;;7390473;19;20312;-79
2022/01/26 11:46:29;;;;;;;7.93;6.20;;;3.50;99.90;;;;;;7284056;19;2004554;-78
2022/01/26 11:49:06;;;;;;;5.97;5.40;;;3.50;99.90;;;;;;7383074;19;20848;-78
2022/01/26 11:51:42;;;;;;;6.45;4.93;;;3.50;99.90;;;;;;7284077;19;2006759;-78
2022/01/26 11:54:39;;;;;;;5.32;4.82;;;3.50;99.90;;;;;;7282200;19;2004460;-78
2022/01/26 11:57:10;;;;;;;5.82;5.03;;;3.50;99.90;;;;;;7284339;19;2006543;-78
2022/01/26 11:59:42;;;;;;;6.53;5.00;;;3.50;99.90;;;;;;7388622;19;20325;-77
2022/01/26 12:02:23;;;;;;;5.22;4.68;;;3.50;99.90;;;;;;7384047;19;20838;-78
2022/01/26 12:04:59;;;;;;;6.47;5.50;;;3.50;99.90;;;;;;7381991;19;20328;-78
2022/01/26 12:07:26;;;;;;;7.30;5.57;;;3.40;99.90;;;;;;7385495;19;20336;-78
2022/01/26 12:09:52;;;;;;;5.80;5.22;;;3.40;99.90;;;;;;7383608;19;20328;-78
2022/01/26 12:12:19;;;;;;;6.03;5.30;;;3.50;99.90;;;;;;7385204;19;20329;-78
2022/01/26 12:15:00;;;;;;;5.60;5.00;;;3.50;99.90;;;;;;7381581;19;20405;-77
2022/01/26 12:17:30;;;;;;;6.35;4.78;;;3.60;99.90;;;;;;7384142;19;20661;-78
2022/01/26 12:32:01;;;;;;;6.28;4.47;;;3.50;99.90;;;;;;7384774;19;20295;-78
2022/01/26 12:37:16;;;;;;;6.50;5.35;;;3.60;99.90;;;;;;7381275;19;20305;-78
2022/01/26 12:45:25;;;;;;;5.32;4.82;;;3.60;99.90;;;;;;7280017;19;2008293;-79
2022/01/26 12:47:52;;;;;;;5.07;4.47;;;3.60;99.90;;;;;;7383408;19;20335;-78
2022/01/26 12:50:18;;;;;;;4.22;3.83;;;3.50;99.90;;;;;;7383214;19;20304;-78
2022/01/26 12:52:49;;;;;;;4.40;3.87;;;3.40;99.90;;;;;;7382371;19;20319;-78
2022/01/26 12:55:32;;;;;;;4.95;4.00;;;3.30;99.90;;;;;;7383701;19;20316;-78
2022/01/26 12:57:57;;;;;;;5.72;4.97;;;3.40;99.90;;;;;;7385684;19;20328;-79
2022/01/26 13:00:26;;;;;;;5.17;4.27;;;3.40;99.90;;;;;;7381683;19;20296;-79
2022/01/26 13:02:52;;;;;;;4.25;3.80;;;3.20;99.90;;;;;;7388076;19;20337;-79
2022/01/26 13:05:25;;;;;;;4.18;3.70;;;3.20;99.90;;;;;;7383723;19;20330;-78
2022/01/26 13:08:04;;;;;;;5.23;3.80;;;3.30;99.90;;;;;;7383889;19;20347;-80
2022/01/26 13:10:30;;;;;;;4.00;3.60;;;3.20;99.90;;;;;;7381670;19;20305;-79
2022/01/26 13:13:19;;;;;;;3.53;3.22;;;3.20;99.90;;;;;;7386501;19;20328;-78
2022/01/26 13:16:09;;;;;;;4.50;4.05;;;3.20;99.90;;;;;;7280031;19;2004575;-79
2022/01/26 13:19:02;;;;;;;4.22;3.55;;;3.20;99.90;;;;;;7380756;19;20304;-79
2022/01/26 13:21:53;;;;;;;5.60;4.30;;;3.30;99.90;;;;;;7283181;19;2007068;-79
2022/01/26 13:27:21;;;;;;;3.08;2.78;;;3.40;99.90;;;;;;7383104;19;20880;-79
2022/01/26 13:30:05;;;;;;;4.20;3.35;;;3.30;99.90;;;;;;7280142;19;2004773;-79
2022/01/26 13:40:30;;;;;;;4.43;4.00;;;3.10;99.90;;;;;;7381137;19;20328;-79
2022/01/26 13:51:01;;;;;;;6.47;4.93;;;3.20;99.90;;;;;;7383537;19;20454;-78
2022/01/26 13:56:16;;;;;;;9.75;6.85;;;3.20;99.90;;;;;;7383259;19;20923;-78
2022/01/26 14:01:28;;;;;;;3.35;3.00;;;3.20;99.90;;;;;;7282145;19;2005822;-79
2022/01/26 14:03:58;;;;;;;3.20;2.90;;;3.20;99.90;;;;;;7382592;19;20332;-79
2022/01/26 14:06:24;;;;;;;3.10;2.83;;;3.30;99.90;;;;;;7385388;19;20341;-78
2022/01/26 14:08:49;;;;;;;2.90;2.70;;;3.10;99.90;;;;;;7386561;19;20410;-80
2022/01/26 14:11:15;;;;;;;3.97;3.57;;;3.30;99.90;;;;;;7384532;19;20302;-81
2022/01/26 14:13:43;;;;;;;3.90;3.50;;;3.10;99.90;;;;;;7382228;19;20368;-77
2022/01/26 14:16:10;;;;;;;3.78;3.20;;;3.10;99.90;;;;;;7382313;19;20328;-79
2022/01/26 14:21:30;;;;;;;3.50;3.15;;;3.20;99.90;;;;;;7275906;19;2006200;-79
2022/01/26 14:24:52;;;;;;;3.78;3.40;;;3.20;99.90;;;;;;7361738;19;20325;-80
2022/01/26 14:26:46;;;;;;;4.00;3.60;;;3.10;99.90;;;;;;7380902;19;20856;-78
2022/01/26 14:29:27;;;;;;;4.47;3.40;;;3.00;99.90;;;;;;7380030;19;20348;-77
2022/01/26 14:32:08;;;;;;;4.40;3.95;;;3.10;99.90;;;;;;7380722;19;20333;-78
2022/01/26 14:39:34;;;;;;;5.20;4.00;;;3.00;99.90;;;;;;7382714;19;20300;-78
2022/01/26 14:54:11;;;;;;;7.95;5.90;;;2.50;99.90;;;;;;7385009;19;20348;-79
2022/01/26 15:35:00;;;;;;;15.68;10.25;;;1.70;99.90;;;;;;7393067;19;20328;-78
2022/01/26 15:40:28;;;;;;;13.18;9.30;;;1.70;99.90;;;;;;7266394;19;2004569;-78
2022/01/26 15:51:06;;;;;;;12.73;9.35;;;1.60;99.90;;;;;;7386183;19;21049;-78
2022/01/26 16:07:28;;;;;;;15.18;9.85;;;1.60;99.90;;;;;;7285032;19;2008143;-78
2022/01/26 16:16:30;;;;;;;14.50;9.50;;;1.60;99.90;;;;;;7285214;19;2004584;-80
2022/01/26 16:26:23;;;;;;;15.77;10.20;;;1.60;99.90;;;;;;7386826;19;20353;-78
2022/01/26 18:38:43;;;;;;;23.65;16.92;;;1.50;99.90;;;;;;7281574;19;2006562;-76
2022/01/26 18:49:12;;;;;;;22.95;15.55;;;1.40;99.90;;;;;;7285736;19;2004674;-77
2022/01/26 18:49:41;;;;;;;19.43;14.83;;;1.50;99.90;;;;;;7283576;19;2005229;-79
2022/01/26 18:52:08;;;;;;;27.60;15.70;;;1.50;99.90;;;;;;7387451;19;20351;-77
2022/01/26 18:54:35;;;;;;;23.10;15.10;;;1.50;99.90;;;;;;7381865;19;20337;-78
2022/01/26 18:57:03;;;;;;;22.65;14.65;;;1.40;99.90;;;;;;7389225;19;20419;-77
2022/01/26 18:59:29;;;;;;;20.52;14.65;;;1.40;99.90;;;;;;7387415;19;20405;-77
2022/01/26 19:01:56;;;;;;;23.02;15.55;;;1.50;99.90;;;;;;7390523;19;20935;-77
2022/01/26 19:04:30;;;;;;;18.87;14.87;;;1.50;99.90;;;;;;7385614;19;20356;-77
2022/01/26 19:06:57;;;;;;;23.50;15.32;;;1.40;99.90;;;;;;7388862;19;20328;-76
2022/01/26 19:09:25;;;;;;;20.77;13.70;;;1.40;99.90;;;;;;7386507;19;20764;-77
2022/01/26 19:11:51;;;;;;;19.88;14.38;;;1.40;99.90;;;;;;7385910;19;20852;-77
2022/01/26 19:14:18;;;;;;;22.70;15.18;;;1.40;99.90;;;;;;7385160;19;20297;-76
2022/01/26 19:16:50;;;;;;;24.92;15.57;;;1.40;99.90;;;;;;7363802;19;20341;-76
2022/01/26 19:19:40;;;;;;;22.63;14.25;;;1.40;99.90;;;;;;7384755;19;20339;-76